createdAt,value
2017-06-01T00:01:26.491Z,12.70
2017-06-01T00:03:55.380Z,12.70
2017-06-01T00:06:24.269Z,12.70
2017-06-01T00:08:53.573Z,12.70
2017-06-01T00:11:22.480Z,12.70
2017-06-01T00:13:51.389Z,12.70
2017-06-01T00:16:20.668Z,12.70
2017-06-01T00:18:49.612Z,12.80
2017-06-01T00:21:18.531Z,12.80
2017-06-01T00:23:47.919Z,12.70
2017-06-01T00:26:16.825Z,12.60
2017-06-01T00:28:45.792Z,12.60
2017-06-01T00:31:15.073Z,12.50
2017-06-01T00:33:44.030Z,12.40
2017-06-01T00:36:12.930Z,12.50
2017-06-01T00:38:42.145Z,12.40
2017-06-01T00:41:11.090Z,12.40
2017-06-01T00:43:40.127Z,12.40
2017-06-01T00:46:09.630Z,12.40
2017-06-01T00:48:38.579Z,12.40
2017-06-01T00:51:07.472Z,12.30
2017-06-01T00:53:36.648Z,12.40
2017-06-01T00:56:05.562Z,12.30
2017-06-01T00:58:34.493Z,12.30
2017-06-01T01:01:03.674Z,12.30
2017-06-01T01:03:32.577Z,12.40
2017-06-01T01:06:01.501Z,12.30
2017-06-01T01:08:30.778Z,12.40
2017-06-01T01:10:59.794Z,12.30
2017-06-01T01:13:29.702Z,12.30
2017-06-01T01:15:58.964Z,12.30
2017-06-01T01:18:28.091Z,12.30
2017-06-01T01:20:57.116Z,12.20
2017-06-01T01:23:26.290Z,12.30
2017-06-01T01:25:55.182Z,12.30
2017-06-01T01:28:24.065Z,12.30
2017-06-01T01:30:53.238Z,12.30
2017-06-01T01:33:21.388Z,12.30
2017-06-01T01:35:50.325Z,12.30
2017-06-01T01:38:19.861Z,12.30
2017-06-01T01:40:48.730Z,12.30
2017-06-01T01:43:17.622Z,12.30
2017-06-01T01:45:46.905Z,12.30
2017-06-01T01:48:15.811Z,12.30
2017-06-01T01:50:44.716Z,12.30
2017-06-01T01:53:14.013Z,12.30
2017-06-01T01:55:42.919Z,12.30
2017-06-01T01:58:11.793Z,12.30
2017-06-01T02:00:41.048Z,12.30
2017-06-01T02:03:10.557Z,12.20
2017-06-01T02:05:39.438Z,12.30
2017-06-01T02:08:08.690Z,12.30
2017-06-01T02:10:36.813Z,12.20
2017-06-01T02:13:05.729Z,12.30
2017-06-01T02:15:34.901Z,12.30
2017-06-01T02:18:03.843Z,12.20
2017-06-01T02:20:32.725Z,12.20
2017-06-01T02:23:01.962Z,12.20
2017-06-01T02:25:31.037Z,12.20
2017-06-01T02:27:59.919Z,12.20
2017-06-01T02:30:29.169Z,12.20
2017-06-01T02:32:58.068Z,12.20
2017-06-01T02:35:27.080Z,12.20
2017-06-01T02:37:56.293Z,12.20
2017-06-01T02:40:25.165Z,12.20
2017-06-01T02:42:54.083Z,12.20
2017-06-01T02:45:23.294Z,12.20
2017-06-01T02:47:52.204Z,12.20
2017-06-01T02:50:21.307Z,12.20
2017-06-01T02:52:50.477Z,12.20
2017-06-01T02:55:19.396Z,12.20
2017-06-01T02:57:48.357Z,12.20
2017-06-01T03:00:16.762Z,12.20
2017-06-01T03:02:45.683Z,12.20
2017-06-01T03:05:14.589Z,12.20
2017-06-01T03:07:43.757Z,12.20
2017-06-01T03:10:12.633Z,12.20
2017-06-01T03:12:41.534Z,12.20
2017-06-01T03:15:10.723Z,12.20
2017-06-01T03:17:39.602Z,12.30
2017-06-01T03:20:08.476Z,12.30
2017-06-01T03:22:36.904Z,12.20
2017-06-01T03:25:05.802Z,12.20
2017-06-01T03:27:34.693Z,12.20
2017-06-01T03:30:06.961Z,12.20
2017-06-01T03:32:35.840Z,12.20
2017-06-01T03:35:05.093Z,12.20
2017-06-01T03:37:33.994Z,12.20
2017-06-01T03:40:02.895Z,12.20
2017-06-01T03:42:32.105Z,12.30
2017-06-01T03:45:00.235Z,12.20
2017-06-01T03:47:29.133Z,12.20
2017-06-01T03:49:58.374Z,12.30
2017-06-01T03:52:27.253Z,12.30
2017-06-01T03:54:56.127Z,12.40
2017-06-01T03:57:25.376Z,12.50
2017-06-01T03:59:54.276Z,12.50
2017-06-01T04:02:23.197Z,12.50
2017-06-01T04:04:52.384Z,12.60
2017-06-01T04:07:21.252Z,12.60
2017-06-01T04:09:49.371Z,12.60
2017-06-01T04:12:18.606Z,12.60
2017-06-01T04:14:47.508Z,12.50
2017-06-01T04:17:16.397Z,12.60
2017-06-01T04:19:45.602Z,12.60
2017-06-01T04:22:14.509Z,12.50
2017-06-01T04:24:43.391Z,12.50
2017-06-01T04:27:12.640Z,12.50
2017-06-01T04:29:41.612Z,12.60
2017-06-01T04:32:10.512Z,12.60
2017-06-01T04:34:39.738Z,12.60
2017-06-01T04:37:08.638Z,12.60
2017-06-01T04:39:37.523Z,12.80
2017-06-01T04:42:06.738Z,12.90
2017-06-01T04:44:34.885Z,12.80
2017-06-01T04:47:03.766Z,13.00
2017-06-01T04:49:33.060Z,13.00
2017-06-01T04:52:01.985Z,13.20
2017-06-01T04:54:30.204Z,13.10
2017-06-01T04:56:59.429Z,13.20
2017-06-01T04:59:28.309Z,13.20
2017-06-01T05:01:57.188Z,13.20
2017-06-01T05:04:26.397Z,13.10
2017-06-01T05:06:55.287Z,13.20
2017-06-01T05:09:24.177Z,13.20
2017-06-01T05:11:53.362Z,13.30
2017-06-01T05:14:22.275Z,13.20
2017-06-01T05:16:51.156Z,13.20
2017-06-01T05:19:20.364Z,13.10
2017-06-01T05:21:49.345Z,13.10
2017-06-01T05:24:17.483Z,13.10
2017-06-01T05:26:46.694Z,13.10
2017-06-01T05:29:15.582Z,12.90
2017-06-01T05:31:44.468Z,12.90
2017-06-01T05:34:13.641Z,13.00
2017-06-01T05:36:42.525Z,13.00
2017-06-01T05:39:11.461Z,13.10
2017-06-01T05:41:40.648Z,13.20
2017-06-01T05:44:09.598Z,13.20
2017-06-01T05:46:38.587Z,13.20
2017-06-01T05:49:07.840Z,13.20
2017-06-01T05:51:36.882Z,13.60
2017-06-01T05:54:05.819Z,13.90
2017-06-01T05:56:35.021Z,13.70
2017-06-01T05:59:04.274Z,13.50
2017-06-01T06:01:32.401Z,13.40
2017-06-01T06:04:01.664Z,13.30
2017-06-01T06:06:30.554Z,13.20
2017-06-01T06:08:59.501Z,13.20
2017-06-01T06:11:28.697Z,13.20
2017-06-01T06:13:57.796Z,13.30
2017-06-01T06:16:26.723Z,13.40
2017-06-01T06:18:55.974Z,13.50
2017-06-01T06:21:24.864Z,13.50
2017-06-01T06:23:53.739Z,13.40
2017-06-01T06:26:22.922Z,13.40
2017-06-01T06:28:51.047Z,13.30
2017-06-01T06:31:19.927Z,13.70
2017-06-01T06:33:49.152Z,13.80
2017-06-01T06:36:18.040Z,13.90
2017-06-01T06:38:46.956Z,13.80
2017-06-01T06:41:16.160Z,13.80
2017-06-01T06:43:45.043Z,13.80
2017-06-01T06:46:13.990Z,14.00
2017-06-01T06:48:43.260Z,14.10
2017-06-01T06:51:12.288Z,14.20
2017-06-01T06:53:41.186Z,14.30
2017-06-01T06:56:10.486Z,14.40
2017-06-01T06:58:39.391Z,14.50
2017-06-01T07:01:08.455Z,14.50
2017-06-01T07:03:36.936Z,14.40
2017-06-01T07:06:05.917Z,14.40
2017-06-01T07:08:34.825Z,14.70
2017-06-01T07:11:04.143Z,14.90
2017-06-01T07:13:33.089Z,15.10
2017-06-01T07:16:01.969Z,15.00
2017-06-01T07:18:31.137Z,15.20
2017-06-01T07:21:00.034Z,15.20
2017-06-01T07:23:28.944Z,15.40
2017-06-01T07:25:58.188Z,15.50
2017-06-01T07:28:27.099Z,15.40
2017-06-01T07:30:56.002Z,15.60
2017-06-01T07:33:25.250Z,15.60
2017-06-01T07:35:54.712Z,15.80
2017-06-01T07:38:23.636Z,15.70
2017-06-01T07:40:52.891Z,15.60
2017-06-01T07:43:21.785Z,15.80
2017-06-01T07:45:50.669Z,16.00
2017-06-01T07:48:19.894Z,16.50
2017-06-01T07:50:48.785Z,16.50
2017-06-01T07:53:17.699Z,16.80
2017-06-01T07:55:46.936Z,16.60
2017-06-01T07:58:15.885Z,16.30
2017-06-01T08:00:44.065Z,16.20
2017-06-01T08:03:13.288Z,16.30
2017-06-01T08:05:42.244Z,16.10
2017-06-01T08:08:11.157Z,16.30
2017-06-01T08:10:40.462Z,16.30
2017-06-01T08:13:09.359Z,16.40
2017-06-01T08:15:39.206Z,16.00
2017-06-01T08:18:08.535Z,16.00
2017-06-01T08:20:37.420Z,16.10
2017-06-01T08:23:06.456Z,16.10
2017-06-01T08:25:34.937Z,16.00
2017-06-01T08:28:03.820Z,16.50
2017-06-01T08:30:32.811Z,16.50
2017-06-01T08:33:01.981Z,16.40
2017-06-01T08:35:30.113Z,16.40
2017-06-01T08:37:59.061Z,16.00
2017-06-01T08:40:27.530Z,16.00
2017-06-01T08:42:56.429Z,16.00
2017-06-01T08:45:25.421Z,16.30
2017-06-01T08:47:54.660Z,16.70
2017-06-01T08:50:23.583Z,17.10
2017-06-01T08:52:52.495Z,17.40
2017-06-01T08:55:21.693Z,17.60
2017-06-01T08:57:51.345Z,17.40
2017-06-01T09:00:20.575Z,17.10
2017-06-01T09:02:49.814Z,17.00
2017-06-01T09:05:21.449Z,17.30
2017-06-01T09:07:51.514Z,17.90
2017-06-01T09:10:20.490Z,17.40
2017-06-01T09:12:49.621Z,17.70
2017-06-01T09:15:18.815Z,17.90
2017-06-01T09:17:48.600Z,17.90
2017-06-01T09:20:17.523Z,17.60
2017-06-01T09:22:47.441Z,17.40
2017-06-01T09:25:16.328Z,17.50
2017-06-01T09:27:45.975Z,17.50
2017-06-01T09:30:15.239Z,17.10
2017-06-01T09:32:44.124Z,17.50
2017-06-01T09:35:13.029Z,17.50
2017-06-01T09:37:42.298Z,17.60
2017-06-01T09:40:11.303Z,17.90
2017-06-01T09:42:40.633Z,18.00
2017-06-01T09:45:09.875Z,18.50
2017-06-01T09:47:38.802Z,18.30
2017-06-01T09:50:07.782Z,18.30
2017-06-01T09:52:36.962Z,18.70
2017-06-01T09:55:05.089Z,18.60
2017-06-01T09:57:34.011Z,18.30
2017-06-01T10:00:02.458Z,18.30
2017-06-01T10:02:31.339Z,18.40
2017-06-01T10:05:00.301Z,18.80
2017-06-01T10:07:29.508Z,19.10
2017-06-01T10:09:58.536Z,19.10
2017-06-01T10:12:27.443Z,19.10
2017-06-01T10:14:56.691Z,18.70
2017-06-01T10:17:26.485Z,19.10
2017-06-01T10:19:55.355Z,19.20
2017-06-01T10:22:24.630Z,19.40
2017-06-01T10:24:53.672Z,19.50
2017-06-01T10:27:22.690Z,19.20
2017-06-01T10:29:51.894Z,19.10
2017-06-01T10:32:20.838Z,19.50
2017-06-01T10:34:49.762Z,19.80
2017-06-01T10:37:18.891Z,19.50
2017-06-01T10:39:47.765Z,19.70
2017-06-01T10:42:16.812Z,20.30
2017-06-01T10:44:46.031Z,20.10
2017-06-01T10:47:14.929Z,19.70
2017-06-01T10:49:43.866Z,19.70
2017-06-01T10:52:13.021Z,19.60
2017-06-01T10:54:41.901Z,19.70
2017-06-01T10:57:10.782Z,20.30
2017-06-01T10:59:40.019Z,20.80
2017-06-01T11:02:08.889Z,21.00
2017-06-01T11:04:37.848Z,21.10
2017-06-01T11:07:07.122Z,20.90
2017-06-01T11:09:35.999Z,20.90
2017-06-01T11:12:04.889Z,20.80
2017-06-01T11:14:34.180Z,20.40
2017-06-01T11:17:04.031Z,20.50
2017-06-01T11:19:32.988Z,20.70
2017-06-01T11:22:02.160Z,20.80
2017-06-01T11:24:31.076Z,21.10
2017-06-01T11:26:59.950Z,21.20
2017-06-01T11:29:29.149Z,21.50
2017-06-01T11:31:58.015Z,21.60
2017-06-01T11:34:26.995Z,21.40
2017-06-01T11:36:56.196Z,21.70
2017-06-01T11:39:25.088Z,21.60
2017-06-01T11:41:54.449Z,21.80
2017-06-01T11:44:23.668Z,22.00
2017-06-01T11:46:52.834Z,21.80
2017-06-01T11:49:21.765Z,21.30
2017-06-01T11:51:50.369Z,21.20
2017-06-01T11:54:19.460Z,21.40
2017-06-01T11:56:48.368Z,21.10
2017-06-01T11:59:16.817Z,21.00
2017-06-01T12:01:45.883Z,21.10
2017-06-01T12:04:15.373Z,21.00
2017-06-01T12:06:44.652Z,20.90
2017-06-01T12:09:12.816Z,20.90
2017-06-01T12:11:41.696Z,21.70
2017-06-01T12:14:10.913Z,21.50
2017-06-01T12:16:39.848Z,21.30
2017-06-01T12:19:08.744Z,21.60
2017-06-01T12:21:37.952Z,21.90
2017-06-01T12:24:06.931Z,21.50
2017-06-01T12:26:35.827Z,21.30
2017-06-01T12:29:05.067Z,21.40
2017-06-01T12:31:33.944Z,21.70
2017-06-01T12:34:02.847Z,21.60
2017-06-01T12:36:32.076Z,21.60
2017-06-01T12:39:00.943Z,21.50
2017-06-01T12:41:29.861Z,21.60
2017-06-01T12:43:59.091Z,21.40
2017-06-01T12:46:28.080Z,21.40
2017-06-01T12:48:56.980Z,21.40
2017-06-01T12:51:26.171Z,21.30
2017-06-01T12:53:55.061Z,21.00
2017-06-01T12:56:23.944Z,21.00
2017-06-01T12:58:53.167Z,21.10
2017-06-01T13:01:22.128Z,21.10
2017-06-01T13:03:51.020Z,20.90
2017-06-01T13:06:20.423Z,21.00
2017-06-01T13:08:49.366Z,21.00
2017-06-01T13:11:17.484Z,21.00
2017-06-01T13:13:47.747Z,21.20
2017-06-01T13:16:15.910Z,21.10
2017-06-01T13:18:44.846Z,21.60
2017-06-01T13:21:14.193Z,21.20
2017-06-01T13:23:43.195Z,21.20
2017-06-01T13:26:12.080Z,21.20
2017-06-01T13:28:41.898Z,21.40
2017-06-01T13:31:10.011Z,21.30
2017-06-01T13:33:38.988Z,21.10
2017-06-01T13:36:08.275Z,21.30
2017-06-01T13:38:37.178Z,21.50
2017-06-01T13:41:05.294Z,21.40
2017-06-01T13:43:34.491Z,21.50
2017-06-01T13:46:03.416Z,21.30
2017-06-01T13:48:32.332Z,21.20
2017-06-01T13:51:01.575Z,20.90
2017-06-01T13:53:30.494Z,20.70
2017-06-01T13:55:59.834Z,20.70
2017-06-01T13:58:30.003Z,20.90
2017-06-01T14:00:59.626Z,20.80
2017-06-01T14:03:28.537Z,20.60
2017-06-01T14:05:57.728Z,20.50
2017-06-01T14:08:26.693Z,20.30
2017-06-01T14:10:55.610Z,20.20
2017-06-01T14:13:24.830Z,20.30
2017-06-01T14:15:53.806Z,20.30
2017-06-01T14:18:22.693Z,20.20
2017-06-01T14:20:52.043Z,20.20
2017-06-01T14:23:20.960Z,20.10
2017-06-01T14:25:49.902Z,20.20
2017-06-01T14:28:19.144Z,20.10
2017-06-01T14:30:47.330Z,20.00
2017-06-01T14:33:16.234Z,20.10
2017-06-01T14:35:45.482Z,20.00
2017-06-01T14:38:14.449Z,20.00
2017-06-01T14:40:43.463Z,19.90
2017-06-01T14:43:12.718Z,20.00
2017-06-01T14:45:41.587Z,19.80
2017-06-01T14:48:10.680Z,19.50
2017-06-01T14:50:39.126Z,19.50
2017-06-01T14:53:08.053Z,19.50
2017-06-01T14:55:36.948Z,19.40
2017-06-01T14:58:06.141Z,19.40
2017-06-01T15:00:36.085Z,19.30
2017-06-01T15:03:04.986Z,19.30
2017-06-01T15:05:34.152Z,19.40
2017-06-01T15:08:03.046Z,19.40
2017-06-01T15:10:31.931Z,19.40
2017-06-01T15:13:00.472Z,19.40
2017-06-01T15:15:30.217Z,19.40
2017-06-01T15:17:59.101Z,19.40
2017-06-01T15:20:28.301Z,19.10
2017-06-01T15:22:59.611Z,19.10
2017-06-01T15:25:29.331Z,19.10
2017-06-01T15:27:58.220Z,19.00
2017-06-01T15:30:27.131Z,19.10
2017-06-01T15:32:56.375Z,19.00
2017-06-01T15:35:25.277Z,19.00
2017-06-01T15:37:54.162Z,18.90
2017-06-01T15:40:23.366Z,19.00
2017-06-01T15:42:51.489Z,19.00
2017-06-01T15:45:20.388Z,18.90
2017-06-01T15:47:49.583Z,18.80
2017-06-01T15:50:18.658Z,18.70
2017-06-01T15:52:47.535Z,18.90
2017-06-01T15:55:16.753Z,18.90
2017-06-01T15:57:45.658Z,18.90
2017-06-01T16:00:14.543Z,18.90
2017-06-01T16:02:43.791Z,18.90
2017-06-01T16:05:12.677Z,18.80
2017-06-01T16:07:41.599Z,19.00
2017-06-01T16:10:10.884Z,19.10
2017-06-01T16:12:39.778Z,19.10
2017-06-01T16:15:08.658Z,19.20
2017-06-01T16:17:37.939Z,19.20
2017-06-01T16:20:07.370Z,19.20
2017-06-01T16:22:36.265Z,19.20
2017-06-01T16:25:05.486Z,19.10
2017-06-01T16:27:34.368Z,19.10
2017-06-01T16:30:03.335Z,19.20
2017-06-01T16:32:32.509Z,19.10
2017-06-01T16:35:01.424Z,19.10
2017-06-01T16:37:30.410Z,19.10
2017-06-01T16:39:59.586Z,19.00
2017-06-01T16:42:28.478Z,18.90
2017-06-01T16:44:57.356Z,18.90
2017-06-01T16:47:26.555Z,18.80
2017-06-01T16:49:55.494Z,18.60
2017-06-01T16:52:25.086Z,18.70
2017-06-01T16:54:54.264Z,18.70
2017-06-01T16:57:23.231Z,18.80
2017-06-01T16:59:52.106Z,18.80
2017-06-01T17:02:21.296Z,18.80
2017-06-01T17:04:50.159Z,18.70
2017-06-01T17:07:19.053Z,18.70
2017-06-01T17:09:48.322Z,18.80
2017-06-01T17:12:17.232Z,18.80
2017-06-01T17:14:46.504Z,18.90
2017-06-01T17:17:15.678Z,18.80
2017-06-01T17:19:44.701Z,18.80
2017-06-01T17:22:13.815Z,18.70
2017-06-01T17:24:43.101Z,18.90
2017-06-01T17:27:12.063Z,18.80
2017-06-01T17:29:40.176Z,18.70
2017-06-01T17:32:09.383Z,18.20
2017-06-01T17:34:38.273Z,18.20
2017-06-01T17:37:07.175Z,18.20
2017-06-01T17:39:36.373Z,18.00
2017-06-01T17:42:05.307Z,18.00
2017-06-01T17:44:34.219Z,18.20
2017-06-01T17:47:03.478Z,18.10
2017-06-01T17:49:32.365Z,18.10
2017-06-01T17:52:01.422Z,18.00
2017-06-01T17:54:30.710Z,17.80
2017-06-01T17:56:59.659Z,17.70
2017-06-01T17:59:28.554Z,17.70
2017-06-01T18:01:57.711Z,17.70
2017-06-01T18:04:26.730Z,17.70
2017-06-01T18:06:55.612Z,17.80
2017-06-01T18:09:24.885Z,17.70
2017-06-01T18:11:53.835Z,17.60
2017-06-01T18:14:22.798Z,17.60
2017-06-01T18:16:52.038Z,17.60
2017-06-01T18:19:20.931Z,17.60
2017-06-01T18:21:49.938Z,17.60
2017-06-01T18:24:19.112Z,17.60
2017-06-01T18:26:47.981Z,17.60
2017-06-01T18:29:16.197Z,17.50
2017-06-01T18:31:45.386Z,17.50
2017-06-01T18:34:13.539Z,17.50
2017-06-01T18:36:42.447Z,17.50
2017-06-01T18:39:11.694Z,17.50
2017-06-01T18:41:39.807Z,17.50
2017-06-01T18:44:08.691Z,17.40
2017-06-01T18:46:37.957Z,17.40
2017-06-01T18:49:06.843Z,17.30
2017-06-01T18:51:35.717Z,17.30
2017-06-01T18:54:04.866Z,17.40
2017-06-01T18:56:33.854Z,17.50
2017-06-01T18:59:02.794Z,17.60
2017-06-01T19:01:32.037Z,17.50
2017-06-01T19:04:00.920Z,17.40
2017-06-01T19:06:29.816Z,17.40
2017-06-01T19:08:58.991Z,17.40
2017-06-01T19:11:27.891Z,17.30
2017-06-01T19:13:56.868Z,17.10
2017-06-01T19:16:26.025Z,17.00
2017-06-01T19:18:54.909Z,16.90
2017-06-01T19:21:23.776Z,16.80
2017-06-01T19:23:52.993Z,16.90
2017-06-01T19:26:21.873Z,16.90
2017-06-01T19:28:50.755Z,16.80
2017-06-01T19:31:19.219Z,16.80
2017-06-01T19:33:48.105Z,16.90
2017-06-01T19:36:16.979Z,16.90
2017-06-01T19:38:46.511Z,16.80
2017-06-01T19:41:15.435Z,16.70
2017-06-01T19:43:44.395Z,16.70
2017-06-01T19:46:13.715Z,16.60
2017-06-01T19:48:42.608Z,16.50
2017-06-01T19:51:11.517Z,16.40
2017-06-01T19:53:40.757Z,16.30
2017-06-01T19:56:09.648Z,16.30
2017-06-01T19:58:38.532Z,16.20
2017-06-01T20:01:07.730Z,16.20
2017-06-01T20:03:37.363Z,16.10
2017-06-01T20:06:06.251Z,16.10
2017-06-01T20:08:35.627Z,16.00
2017-06-01T20:11:03.750Z,16.00
2017-06-01T20:13:32.720Z,15.90
2017-06-01T20:16:01.172Z,15.90
2017-06-01T20:18:30.121Z,15.90
2017-06-01T20:20:59.184Z,15.90
2017-06-01T20:23:28.337Z,15.90
2017-06-01T20:25:57.299Z,15.90
2017-06-01T20:28:25.432Z,15.80
2017-06-01T20:30:55.622Z,15.90
2017-06-01T20:33:24.560Z,15.90
2017-06-01T20:35:53.454Z,15.80
2017-06-01T20:38:22.672Z,15.80
2017-06-01T20:40:51.558Z,15.80
2017-06-01T20:43:20.654Z,15.70
2017-06-01T20:45:49.866Z,15.70
2017-06-01T20:48:18.840Z,15.80
2017-06-01T20:50:47.730Z,15.80
2017-06-01T20:53:17.001Z,15.70
2017-06-01T20:55:45.977Z,15.70
2017-06-01T20:58:14.877Z,15.70
2017-06-01T21:00:44.070Z,15.70
2017-06-01T21:03:12.969Z,15.60
2017-06-01T21:05:41.874Z,15.50
2017-06-01T21:08:11.107Z,15.40
2017-06-01T21:10:40.168Z,15.40
2017-06-01T21:13:08.312Z,15.40
2017-06-01T21:15:37.552Z,15.40
2017-06-01T21:18:06.458Z,15.40
2017-06-01T21:20:35.331Z,15.30
2017-06-01T21:23:04.502Z,15.40
2017-06-01T21:25:33.381Z,15.30
2017-06-01T21:28:02.270Z,15.30
2017-06-01T21:30:31.505Z,15.30
2017-06-01T21:33:00.452Z,15.30
2017-06-01T21:35:28.590Z,15.20
2017-06-01T21:37:57.806Z,15.10
2017-06-01T21:40:26.681Z,15.00
2017-06-01T21:42:56.395Z,15.00
2017-06-01T21:45:25.616Z,15.00
2017-06-01T21:47:54.687Z,15.00
2017-06-01T21:50:23.602Z,15.00
2017-06-01T21:52:52.765Z,15.00
2017-06-01T21:55:21.678Z,15.00
2017-06-01T21:57:50.587Z,15.00
2017-06-01T22:00:19.811Z,14.90
2017-06-01T22:02:48.706Z,14.90
2017-06-01T22:05:17.605Z,14.80
2017-06-01T22:07:46.778Z,14.80
2017-06-01T22:10:16.147Z,14.80
2017-06-01T22:12:45.142Z,14.70
2017-06-01T22:15:14.341Z,14.60
2017-06-01T22:17:43.238Z,14.70
2017-06-01T22:20:12.149Z,14.70
2017-06-01T22:22:41.450Z,14.80
2017-06-01T22:25:10.344Z,14.80
2017-06-01T22:27:38.471Z,14.70
2017-06-01T22:30:07.655Z,14.50
2017-06-01T22:32:36.634Z,14.50
2017-06-01T22:35:06.782Z,14.40
2017-06-01T22:37:35.999Z,14.30
2017-06-01T22:40:04.970Z,14.30
2017-06-01T22:42:33.884Z,14.20
2017-06-01T22:45:03.161Z,14.10
2017-06-01T22:47:32.203Z,14.00
2017-06-01T22:50:01.505Z,13.80
2017-06-01T22:52:30.784Z,13.80
2017-06-01T22:54:59.744Z,13.70
2017-06-01T22:57:28.749Z,13.60
2017-06-01T22:59:58.014Z,13.50
2017-06-01T23:02:26.972Z,13.40
2017-06-01T23:04:55.896Z,13.30
2017-06-01T23:07:25.144Z,13.20
2017-06-01T23:09:54.089Z,13.20
2017-06-01T23:12:22.984Z,13.30
2017-06-01T23:14:52.215Z,13.30
2017-06-01T23:17:21.111Z,13.30
2017-06-01T23:19:50.027Z,13.30
2017-06-01T23:22:19.304Z,13.40
2017-06-01T23:24:48.289Z,13.40
2017-06-01T23:27:17.167Z,13.50
2017-06-01T23:29:46.412Z,13.50
2017-06-01T23:32:15.323Z,13.50
2017-06-01T23:34:44.740Z,13.60
2017-06-01T23:37:13.947Z,13.60
2017-06-01T23:39:42.144Z,13.60
2017-06-01T23:42:11.150Z,13.30
2017-06-01T23:44:41.008Z,13.20
2017-06-01T23:47:10.375Z,13.10
2017-06-01T23:49:39.254Z,13.10
2017-06-01T23:52:09.009Z,13.00
2017-06-01T23:54:37.913Z,12.90
2017-06-01T23:57:06.778Z,12.80
2017-06-01T23:59:36.021Z,12.80
